createdAt,value
2023-01-04T00:02:19.556Z,98968.47
2023-01-04T00:04:47.772Z,98970.19
2023-01-04T00:07:16.067Z,98964.97
2023-01-04T00:09:44.384Z,98946.66
2023-01-04T00:12:12.539Z,98958.22
2023-01-04T00:14:40.648Z,98960.97
2023-01-04T00:17:10.221Z,98952.31
2023-01-04T00:19:38.382Z,98951.41
2023-01-04T00:22:06.648Z,98947.81
2023-01-04T00:24:34.761Z,98947.63
2023-01-04T00:27:02.951Z,98936.22
2023-01-04T00:29:31.203Z,98949.28
2023-01-04T00:31:59.336Z,98932.66
2023-01-04T00:34:28.982Z,98949.31
2023-01-04T00:36:57.175Z,98957.16
2023-01-04T00:39:25.904Z,98933.59
2023-01-04T00:42:05.247Z,98955.34
2023-01-04T00:44:34.628Z,98951.88
2023-01-04T00:47:04.884Z,98907.44
2023-01-04T00:49:34.465Z,98828.00
2023-01-04T00:52:02.609Z,98953.66
2023-01-04T00:54:30.770Z,98933.53
2023-01-04T00:56:59.611Z,98956.25
2023-01-04T00:59:27.827Z,98951.09
2023-01-04T01:01:56.055Z,98951.97
2023-01-04T01:04:25.545Z,98947.69
2023-01-04T01:06:55.328Z,98932.19
2023-01-04T01:09:23.948Z,98949.69
2023-01-04T01:11:53.049Z,98955.59
2023-01-04T01:14:24.160Z,98955.50
2023-01-04T01:16:56.414Z,98961.50
2023-01-04T01:19:25.360Z,98946.63
2023-01-04T01:21:56.531Z,98957.16
2023-01-04T01:24:24.756Z,98945.75
2023-01-04T01:26:52.886Z,98951.97
2023-01-04T01:29:21.125Z,98896.09
2023-01-04T01:31:49.357Z,98949.44
2023-01-04T01:34:17.616Z,98948.56
2023-01-04T01:36:45.990Z,98977.19
2023-01-04T01:39:16.011Z,98947.69
2023-01-04T01:41:44.297Z,98947.81
2023-01-04T01:44:45.767Z,98952.19
2023-01-04T01:47:16.754Z,98938.09
2023-01-04T01:49:47.955Z,98951.19
2023-01-04T01:52:19.456Z,98955.44
2023-01-04T01:54:53.409Z,98756.53
2023-01-04T01:57:26.476Z,98940.72
2023-01-04T01:59:57.668Z,98936.44
2023-01-04T02:02:26.062Z,98936.53
2023-01-04T02:04:56.002Z,98935.59
2023-01-04T02:07:27.836Z,98931.22
2023-01-04T02:09:57.927Z,98932.03
2023-01-04T02:12:27.091Z,98933.06
2023-01-04T02:14:55.344Z,98911.41
2023-01-04T02:17:32.559Z,98936.53
2023-01-04T02:20:17.113Z,98940.72
2023-01-04T02:23:30.907Z,98929.44
2023-01-04T02:26:44.465Z,98929.50
2023-01-04T02:29:53.207Z,98929.34
2023-01-04T02:32:36.366Z,98918.94
2023-01-04T02:35:16.192Z,98930.38
2023-01-04T02:37:56.057Z,98924.41
2023-01-04T02:40:31.185Z,98850.00
2023-01-04T02:43:22.983Z,98922.50
2023-01-04T02:46:00.046Z,98928.56
2023-01-04T02:48:54.051Z,98906.56
2023-01-04T02:51:29.532Z,98928.63
2023-01-04T02:53:59.564Z,98933.81
2023-01-04T02:56:37.672Z,98535.19
2023-01-04T02:59:20.641Z,98936.38
2023-01-04T03:02:16.146Z,98936.38
2023-01-04T03:05:13.159Z,98932.09
2023-01-04T03:07:49.326Z,98943.31
2023-01-04T03:10:24.594Z,98938.16
2023-01-04T03:13:06.723Z,98936.41
2023-01-04T03:15:38.482Z,98928.56
2023-01-04T03:18:13.284Z,98932.91
2023-01-04T03:20:44.597Z,98909.44
2023-01-04T03:23:34.626Z,98926.03
2023-01-04T03:26:24.573Z,98933.94
2023-01-04T03:29:12.304Z,98932.28
2023-01-04T03:32:02.979Z,98931.41
2023-01-04T03:34:48.515Z,98925.28
2023-01-04T03:37:22.112Z,98932.19
2023-01-04T03:40:34.180Z,98925.16
2023-01-04T03:43:26.650Z,98932.09
2023-01-04T03:46:17.087Z,98926.88
2023-01-04T03:48:52.116Z,98926.91
2023-01-04T03:51:26.753Z,98897.28
2023-01-04T03:54:01.211Z,98890.25
2023-01-04T03:56:30.911Z,98925.16
2023-01-04T03:58:59.749Z,98925.16
2023-01-04T04:01:29.278Z,98928.63
2023-01-04T04:04:15.042Z,98926.13
2023-01-04T04:07:00.626Z,98927.78
2023-01-04T04:09:30.190Z,98926.03
2023-01-04T04:11:58.463Z,98875.47
2023-01-04T04:14:26.950Z,98918.22
2023-01-04T04:16:55.239Z,98923.63
2023-01-04T04:19:23.437Z,98906.09
2023-01-04T04:21:51.659Z,98892.94
2023-01-04T04:24:21.934Z,98914.69
2023-01-04T04:26:51.818Z,98917.28
2023-01-04T04:29:19.961Z,98907.75
2023-01-04T04:31:48.636Z,98891.19
2023-01-04T04:34:16.849Z,98893.81
2023-01-04T04:36:44.999Z,98916.44
2023-01-04T04:39:13.237Z,98921.69
2023-01-04T04:41:41.711Z,98832.63
2023-01-04T04:44:13.962Z,98905.88
2023-01-04T04:46:42.809Z,98916.44
2023-01-04T04:49:11.978Z,98913.13
2023-01-04T04:51:40.199Z,98829.16
2023-01-04T04:54:09.081Z,98920.16
2023-01-04T04:56:38.970Z,98924.38
2023-01-04T04:59:07.373Z,98924.31
2023-01-04T05:01:37.143Z,98907.66
2023-01-04T05:04:05.839Z,98924.22
2023-01-04T05:06:34.457Z,98904.00
2023-01-04T05:09:02.623Z,98919.03
2023-01-04T05:11:44.514Z,98918.16
2023-01-04T05:14:12.667Z,98914.72
2023-01-04T05:16:42.346Z,98918.22
2023-01-04T05:19:10.951Z,98892.16
2023-01-04T05:21:39.275Z,98906.22
2023-01-04T05:24:07.808Z,98878.19
2023-01-04T05:26:36.044Z,98892.16
2023-01-04T05:29:04.367Z,98913.53
2023-01-04T05:31:31.526Z,98912.09
2023-01-04T05:34:01.145Z,98912.09
2023-01-04T05:36:29.245Z,98910.34
2023-01-04T05:38:57.397Z,98906.00
2023-01-04T05:41:42.617Z,98829.94
2023-01-04T05:44:10.776Z,98892.94
2023-01-04T05:46:38.930Z,98919.94
2023-01-04T05:49:08.508Z,98921.69
2023-01-04T05:51:36.604Z,98919.09
2023-01-04T05:54:04.791Z,98919.97
2023-01-04T05:56:33.007Z,98903.41
2023-01-04T05:59:01.174Z,98866.00
2023-01-04T06:01:29.353Z,98909.66
2023-01-04T06:03:58.097Z,98919.19
2023-01-04T06:06:27.757Z,98914.88
2023-01-04T06:08:55.915Z,98926.16
2023-01-04T06:11:27.559Z,98929.59
2023-01-04T06:13:56.248Z,98923.56
2023-01-04T06:19:09.895Z,98920.94
2023-01-04T06:21:39.551Z,98855.38
2023-01-04T06:24:08.240Z,98926.13
2023-01-04T06:26:36.354Z,98928.72
2023-01-04T06:29:04.642Z,98928.72
2023-01-04T06:31:33.787Z,98909.50
2023-01-04T06:34:02.307Z,98923.53
2023-01-04T06:36:30.951Z,98926.16
2023-01-04T06:39:01.138Z,98925.34
2023-01-04T06:41:29.267Z,98907.81
2023-01-04T06:43:57.447Z,98922.75
2023-01-04T06:46:25.723Z,98923.69
2023-01-04T06:48:54.170Z,98906.28
2023-01-04T06:51:22.917Z,98912.41
2023-01-04T06:53:51.601Z,98921.97
2023-01-04T06:56:21.712Z,98925.41
2023-01-04T06:58:49.885Z,98913.97
2023-01-04T07:01:18.718Z,98918.47
2023-01-04T07:03:47.093Z,98925.41
2023-01-04T07:06:15.346Z,98911.41
2023-01-04T07:08:43.514Z,98915.00
2023-01-04T07:11:11.666Z,98922.75
2023-01-04T07:13:41.246Z,98925.34
2023-01-04T07:16:09.451Z,98929.69
2023-01-04T07:18:38.201Z,98931.34
2023-01-04T07:21:06.758Z,98923.44
2023-01-04T07:23:35.741Z,98941.78
2023-01-04T07:26:04.303Z,98939.22
2023-01-04T07:28:50.152Z,98935.75
2023-01-04T07:31:19.724Z,98934.88
2023-01-04T07:33:51.111Z,98926.22
2023-01-04T07:36:19.347Z,98934.09
2023-01-04T07:38:47.477Z,98871.34
2023-01-04T07:41:15.667Z,98896.66
2023-01-04T07:43:43.857Z,98925.50
2023-01-04T07:46:12.040Z,98929.75
2023-01-04T07:48:41.755Z,98924.53
2023-01-04T07:51:09.946Z,98926.34
2023-01-04T07:53:38.059Z,98913.16
2023-01-04T07:56:06.874Z,98913.91
2023-01-04T07:58:35.630Z,98919.03
2023-01-04T08:01:11.321Z,98887.44
2023-01-04T08:03:41.396Z,98931.25
2023-01-04T08:06:12.354Z,98930.34
2023-01-04T08:08:41.017Z,98927.00
2023-01-04T08:11:11.636Z,98925.28
2023-01-04T08:13:39.820Z,98852.63
2023-01-04T08:16:08.507Z,98919.00
2023-01-04T08:18:36.680Z,98921.56
2023-01-04T08:21:08.367Z,98931.94
2023-01-04T08:23:37.768Z,98766.06
2023-01-04T08:26:07.446Z,98928.56
2023-01-04T08:28:36.253Z,98925.03
2023-01-04T08:31:07.581Z,98929.34
2023-01-04T08:33:36.696Z,98923.28
2023-01-04T08:36:11.099Z,98921.53
2023-01-04T08:41:55.956Z,98915.50
2023-01-04T08:44:16.004Z,98912.00
2023-01-04T08:46:44.298Z,98745.47
2023-01-04T08:49:12.793Z,98906.97
2023-01-04T08:51:42.897Z,98869.41
2023-01-04T08:54:12.039Z,98892.53
2023-01-04T08:56:40.471Z,98899.66
2023-01-04T08:59:09.318Z,98853.56
2023-01-04T09:01:37.772Z,98898.94
2023-01-04T09:04:06.304Z,98906.84
2023-01-04T09:06:34.621Z,98844.13
2023-01-04T09:09:04.383Z,98895.69
2023-01-04T09:11:32.496Z,98893.19
2023-01-04T09:14:08.050Z,98895.03
2023-01-04T09:16:38.638Z,98888.16
2023-01-04T09:19:08.288Z,98885.59
2023-01-04T09:21:36.815Z,98883.06
2023-01-04T09:24:06.849Z,98884.88
2023-01-04T09:26:35.072Z,98872.78
2023-01-04T09:29:04.044Z,98873.63
2023-01-04T09:31:32.274Z,98837.06
2023-01-04T09:34:13.981Z,98868.47
2023-01-04T09:36:43.228Z,98872.00
2023-01-04T09:39:21.051Z,98870.28
2023-01-04T09:41:57.236Z,98862.47
2023-01-04T09:45:12.166Z,98864.22
2023-01-04T09:47:31.734Z,98860.78
2023-01-04T09:50:05.060Z,98843.34
2023-01-04T09:52:44.555Z,98829.47
2023-01-04T09:55:39.361Z,98679.72
2023-01-04T09:58:27.127Z,98809.44
2023-01-04T10:01:03.177Z,98825.97
2023-01-04T10:03:34.495Z,98801.56
2023-01-04T10:06:04.020Z,98769.38
2023-01-04T10:08:32.639Z,98818.13
2023-01-04T10:11:15.590Z,98805.03
2023-01-04T10:13:58.995Z,98730.19
2023-01-04T10:17:12.081Z,98742.38
2023-01-04T10:21:14.639Z,98795.41
2023-01-04T10:22:46.545Z,98751.88
2023-01-04T10:25:30.887Z,98789.25
2023-01-04T10:28:23.368Z,98772.59
2023-01-04T10:31:00.579Z,98781.25
2023-01-04T10:33:50.853Z,98771.59
2023-01-04T10:36:21.205Z,98768.06
2023-01-04T10:38:58.326Z,98758.41
2023-01-04T10:41:29.828Z,98740.91
2023-01-04T10:44:14.185Z,98733.00
2023-01-04T10:46:50.257Z,98740.78
2023-01-04T10:49:25.045Z,98734.63
2023-01-04T10:51:58.486Z,98618.09
2023-01-04T10:54:32.508Z,98716.13
2023-01-04T10:57:07.096Z,98716.06
2023-01-04T10:59:43.482Z,98701.13
2023-01-04T11:02:20.721Z,98677.53
2023-01-04T11:04:57.869Z,98609.63
2023-01-04T11:07:29.952Z,98667.59
2023-01-04T11:10:04.947Z,98697.09
2023-01-04T11:12:33.290Z,98617.28
2023-01-04T11:15:03.168Z,98675.41
2023-01-04T11:17:33.416Z,98685.72
2023-01-04T11:20:01.768Z,98698.97
2023-01-04T11:22:36.088Z,98670.91
2023-01-04T11:25:34.329Z,98608.47
2023-01-04T11:28:02.831Z,98682.69
2023-01-04T11:30:41.332Z,98680.88
2023-01-04T11:33:17.263Z,98622.50
2023-01-04T11:35:48.449Z,98663.00
2023-01-04T11:38:18.762Z,98637.78
2023-01-04T11:40:59.139Z,98654.03
2023-01-04T11:43:29.095Z,98534.50
2023-01-04T11:46:01.903Z,98647.00
2023-01-04T11:48:45.105Z,98653.00
2023-01-04T11:51:34.173Z,98646.81
2023-01-04T11:54:05.092Z,98640.38
2023-01-04T11:56:34.184Z,98634.16
2023-01-04T11:59:20.669Z,98636.59
2023-01-04T12:02:42.072Z,98612.03
2023-01-04T12:08:07.931Z,98612.00
2023-01-04T12:10:36.217Z,98604.88
2023-01-04T12:13:04.868Z,98593.38
2023-01-04T12:15:41.275Z,98589.72
2023-01-04T12:18:14.254Z,98594.75
2023-01-04T12:20:42.475Z,98576.50
2023-01-04T12:23:12.755Z,98590.09
2023-01-04T12:25:43.907Z,98586.41
2023-01-04T12:28:30.869Z,98577.25
2023-01-04T12:31:30.156Z,98565.69
2023-01-04T12:34:01.839Z,98545.84
2023-01-04T12:37:04.967Z,98558.06
2023-01-04T12:39:43.953Z,98560.69
2023-01-04T12:42:17.784Z,98530.28
2023-01-04T12:45:16.989Z,98558.50
2023-01-04T12:48:04.349Z,98555.09
2023-01-04T12:50:39.742Z,98523.72
2023-01-04T12:53:31.088Z,98543.16
2023-01-04T12:55:59.890Z,98558.38
2023-01-04T12:59:24.712Z,98475.44
2023-01-04T13:02:17.360Z,98532.06
2023-01-04T13:04:45.778Z,98529.06
2023-01-04T13:07:21.344Z,98519.72
2023-01-04T13:09:59.155Z,98527.75
2023-01-04T13:12:53.849Z,98512.88
2023-01-04T13:15:26.256Z,98504.16
2023-01-04T13:17:54.736Z,98499.38
2023-01-04T13:20:25.901Z,98505.34
2023-01-04T13:22:58.126Z,98482.72
2023-01-04T13:25:26.606Z,98498.47
2023-01-04T13:28:00.559Z,98498.22
2023-01-04T13:30:34.491Z,98501.22
2023-01-04T13:33:27.943Z,98479.84
2023-01-04T13:36:04.461Z,98475.66
2023-01-04T13:38:35.787Z,98488.69
2023-01-04T13:41:17.867Z,98478.69
2023-01-04T13:44:04.006Z,98470.91
2023-01-04T13:46:32.469Z,98446.41
2023-01-04T13:49:03.388Z,98461.22
2023-01-04T13:51:37.690Z,98459.22
2023-01-04T13:54:18.935Z,98463.59
2023-01-04T13:56:53.517Z,98467.91
2023-01-04T13:59:23.924Z,98401.16
2023-01-04T14:01:53.452Z,98466.91
2023-01-04T14:04:26.854Z,98424.97
2023-01-04T14:06:58.738Z,98463.69
2023-01-04T14:09:32.875Z,98461.56
2023-01-04T14:12:09.629Z,98451.00
2023-01-04T14:14:41.305Z,98453.53
2023-01-04T14:17:19.789Z,98465.44
2023-01-04T14:19:50.992Z,98467.94
2023-01-04T14:22:42.822Z,98465.75
2023-01-04T14:25:45.092Z,98462.63
2023-01-04T14:28:32.888Z,98462.28
2023-01-04T14:31:36.090Z,98447.06
2023-01-04T14:34:15.892Z,98466.41
2023-01-04T14:36:44.998Z,98458.63
2023-01-04T14:39:35.673Z,98451.84
2023-01-04T14:42:06.283Z,98450.53
2023-01-04T14:44:36.518Z,98449.94
2023-01-04T14:47:07.968Z,98440.38
2023-01-04T14:49:36.136Z,98418.09
2023-01-04T14:52:10.702Z,98407.84
2023-01-04T14:54:39.865Z,98432.28
2023-01-04T14:57:11.196Z,98370.03
2023-01-04T14:59:39.304Z,98430.72
2023-01-04T15:02:07.741Z,98411.78
2023-01-04T15:04:36.025Z,98413.53
2023-01-04T15:07:04.329Z,98441.34
2023-01-04T15:09:32.840Z,98443.22
2023-01-04T15:12:01.005Z,98431.13
2023-01-04T15:14:30.581Z,98433.00
2023-01-04T15:16:58.771Z,98250.94
2023-01-04T15:19:28.487Z,98427.88
2023-01-04T15:21:58.306Z,98415.88
2023-01-04T15:24:26.386Z,98421.19
2023-01-04T15:26:54.515Z,98368.34
2023-01-04T15:29:22.745Z,98415.19
2023-01-04T15:31:52.339Z,98423.91
2023-01-04T15:34:22.956Z,98393.56
2023-01-04T15:36:52.418Z,98411.78
2023-01-04T15:39:20.607Z,98416.06
2023-01-04T15:42:05.978Z,98396.09
2023-01-04T15:44:34.188Z,98400.44
2023-01-04T15:47:03.900Z,98410.94
2023-01-04T15:49:32.164Z,98413.59
2023-01-04T15:52:00.402Z,98398.06
2023-01-04T15:54:29.282Z,98405.88
2023-01-04T15:56:57.651Z,98207.28
2023-01-04T15:59:26.014Z,98411.09
2023-01-04T16:01:54.391Z,98421.53
2023-01-04T16:04:24.109Z,98391.16
2023-01-04T16:06:52.268Z,98408.53
2023-01-04T16:09:20.540Z,98414.59
2023-01-04T16:12:05.983Z,98422.41
2023-01-04T16:14:34.164Z,98376.47
2023-01-04T16:17:02.329Z,98372.94
2023-01-04T16:19:34.312Z,98410.28
2023-01-04T16:22:02.657Z,98412.00
2023-01-04T16:25:09.153Z,98415.50
2023-01-04T16:27:19.069Z,98405.94
2023-01-04T16:29:47.274Z,98373.88
2023-01-04T16:32:15.445Z,98402.47
2023-01-04T16:34:45.210Z,98392.94
2023-01-04T16:37:13.434Z,98392.91
2023-01-04T16:42:30.002Z,98387.69
2023-01-04T16:44:58.195Z,98393.78
2023-01-04T16:47:26.446Z,98390.31
2023-01-04T16:49:56.072Z,98388.56
2023-01-04T16:52:27.341Z,98376.44
2023-01-04T16:54:55.499Z,98399.88
2023-01-04T16:57:24.112Z,98339.13
2023-01-04T16:59:52.416Z,98392.91
2023-01-04T17:02:20.705Z,98384.25
2023-01-04T17:04:55.322Z,98399.88
2023-01-04T17:07:27.674Z,98329.56
2023-01-04T17:09:55.874Z,98397.22
2023-01-04T17:18:01.418Z,98359.09
2023-01-04T17:20:29.672Z,98372.09
2023-01-04T17:22:59.318Z,98359.94
2023-01-04T17:25:27.608Z,98368.63
2023-01-04T17:27:55.914Z,98364.25
2023-01-04T17:30:24.116Z,98365.16
2023-01-04T17:32:52.460Z,98276.72
2023-01-04T17:35:20.633Z,98329.56
2023-01-04T17:37:48.812Z,98346.00
2023-01-04T17:40:22.864Z,98346.88
2023-01-04T17:42:51.889Z,98316.53
2023-01-04T17:45:20.196Z,98335.59
2023-01-04T17:47:48.860Z,98235.91
2023-01-04T17:50:18.288Z,98328.63
2023-01-04T17:52:47.625Z,98174.34
2023-01-04T17:55:18.026Z,98325.13
2023-01-04T17:57:46.560Z,98328.59
2023-01-04T18:00:16.168Z,98335.56
2023-01-04T18:02:44.791Z,98130.19
2023-01-04T18:05:13.068Z,98293.16
2023-01-04T18:07:41.244Z,98329.56
2023-01-04T18:10:20.574Z,98334.75
2023-01-04T18:12:56.483Z,98323.47
2023-01-04T18:15:26.370Z,98324.34
2023-01-04T18:17:54.554Z,98327.78
2023-01-04T18:20:25.593Z,98305.19
2023-01-04T18:22:53.845Z,98317.31
2023-01-04T18:25:22.053Z,98303.44
2023-01-04T18:27:50.423Z,98301.75
2023-01-04T18:30:20.231Z,98301.75
2023-01-04T18:32:48.532Z,98297.44
2023-01-04T18:35:16.860Z,98287.91
2023-01-04T18:37:46.310Z,98298.28
2023-01-04T18:40:14.587Z,98304.41
2023-01-04T18:42:47.350Z,98261.00
2023-01-04T18:45:15.918Z,98261.91
2023-01-04T18:47:47.671Z,98294.81
2023-01-04T18:50:16.533Z,98247.97
2023-01-04T18:52:44.938Z,98289.56
2023-01-04T18:55:13.405Z,98267.00
2023-01-04T18:57:42.071Z,98287.84
2023-01-04T19:00:11.803Z,98255.75
2023-01-04T19:02:40.256Z,98264.38
2023-01-04T19:05:11.398Z,98269.56
2023-01-04T19:07:40.728Z,98020.09
2023-01-04T19:10:09.936Z,98261.78
2023-01-04T19:12:39.049Z,98228.84
2023-01-04T19:15:09.295Z,98204.56
2023-01-04T19:17:37.714Z,98245.31
2023-01-04T19:20:09.696Z,98174.28
2023-01-04T19:22:37.929Z,98242.72
2023-01-04T19:25:07.436Z,98111.94
2023-01-04T19:27:35.716Z,98236.66
2023-01-04T19:30:03.951Z,98233.25
2023-01-04T19:32:33.810Z,98240.97
2023-01-04T19:35:02.416Z,98241.88
2023-01-04T19:37:32.005Z,98249.66
2023-01-04T19:40:00.229Z,98129.31
2023-01-04T19:42:28.453Z,98227.16
2023-01-04T19:44:56.659Z,98242.75
2023-01-04T19:47:24.932Z,98221.09
2023-01-04T19:49:53.080Z,98246.19
2023-01-04T19:52:21.299Z,98229.72
2023-01-04T19:54:50.923Z,98254.91
2023-01-04T19:57:19.224Z,98183.84
2023-01-04T19:59:47.416Z,98238.41
2023-01-04T20:02:15.786Z,98235.81
2023-01-04T20:04:44.441Z,98220.13
2023-01-04T20:07:12.696Z,98222.75
2023-01-04T20:09:40.934Z,98154.28
2023-01-04T20:12:10.623Z,98220.22
2023-01-04T20:14:39.471Z,98133.63
2023-01-04T20:17:08.030Z,98186.44
2023-01-04T20:19:36.362Z,98201.97
2023-01-04T20:22:04.593Z,98200.28
2023-01-04T20:24:33.138Z,98207.22
2023-01-04T20:27:01.412Z,98182.97
2023-01-04T20:29:31.051Z,98190.75
2023-01-04T20:32:00.823Z,98200.25
2023-01-04T20:34:29.248Z,98176.84
2023-01-04T20:36:57.449Z,98194.25
2023-01-04T20:39:25.837Z,98187.25
2023-01-04T20:42:11.497Z,98173.44
2023-01-04T20:44:41.163Z,98193.38
2023-01-04T20:47:09.341Z,98181.25
2023-01-04T20:49:37.582Z,98188.19
2023-01-04T20:52:06.173Z,98182.97
2023-01-04T20:54:34.529Z,98173.44
2023-01-04T20:57:02.772Z,98105.00
2023-01-04T20:59:31.090Z,98165.59
2023-01-04T21:02:03.443Z,98149.13
2023-01-04T21:04:32.334Z,98166.50
2023-01-04T21:07:00.538Z,98156.97
2023-01-04T21:09:29.043Z,98152.66
2023-01-04T21:12:00.653Z,98156.09
2023-01-04T21:14:33.654Z,98140.53
2023-01-04T21:17:03.368Z,98153.53
2023-01-04T21:19:31.652Z,98129.28
2023-01-04T21:21:59.855Z,98150.94
2023-01-04T21:24:28.066Z,98087.72
2023-01-04T21:26:56.276Z,98155.28
2023-01-04T21:29:25.575Z,98148.31
2023-01-04T21:31:53.818Z,98151.78
2023-01-04T21:34:24.453Z,98105.06
2023-01-04T21:36:52.724Z,98109.38
2023-01-04T21:39:21.094Z,97969.09
2023-01-04T21:41:51.360Z,98122.34
2023-01-04T21:44:19.563Z,98109.41
2023-01-04T21:46:47.892Z,98123.22
2023-01-04T21:49:16.234Z,98107.63
2023-01-04T21:51:45.877Z,98040.94
2023-01-04T21:54:14.106Z,98110.22
2023-01-04T21:56:42.288Z,98107.59
2023-01-04T21:59:10.524Z,98105.88
2023-01-04T22:01:38.809Z,98085.09
2023-01-04T22:04:07.657Z,98040.94
2023-01-04T22:06:38.783Z,98105.88
2023-01-04T22:09:08.520Z,98077.31
2023-01-04T22:11:37.020Z,98094.59
2023-01-04T22:14:05.340Z,98099.84
2023-01-04T22:16:33.864Z,98074.72
2023-01-04T22:19:02.098Z,98057.38
2023-01-04T22:21:30.925Z,98069.50
2023-01-04T22:23:59.286Z,98096.34
2023-01-04T22:26:28.964Z,98056.53
2023-01-04T22:28:57.180Z,98079.06
2023-01-04T22:31:25.467Z,98081.63
2023-01-04T22:33:53.762Z,98079.06
2023-01-04T22:36:23.668Z,98062.56
2023-01-04T22:38:52.732Z,97902.50
2023-01-04T22:41:22.528Z,98058.22
2023-01-04T22:43:57.734Z,98056.50
2023-01-04T22:46:27.832Z,98037.44
2023-01-04T22:48:56.769Z,98025.34
2023-01-04T22:51:27.645Z,98072.09
2023-01-04T22:53:56.507Z,98053.91
2023-01-04T22:56:26.219Z,98046.13
2023-01-04T22:58:58.010Z,98039.22
2023-01-04T23:01:27.856Z,98044.38
2023-01-04T23:03:57.223Z,98010.56
2023-01-04T23:06:26.241Z,97963.91
2023-01-04T23:08:58.385Z,98046.09
2023-01-04T23:11:27.858Z,97992.50
2023-01-04T23:13:58.259Z,98035.72
2023-01-04T23:16:32.288Z,98016.69
2023-01-04T23:19:01.766Z,98008.03
2023-01-04T23:21:30.188Z,98000.22
2023-01-04T23:23:58.915Z,97963.03
2023-01-04T23:26:28.891Z,98000.22
2023-01-04T23:28:59.269Z,97954.34
2023-01-04T23:31:30.818Z,97986.38
2023-01-04T23:34:00.790Z,97983.72
2023-01-04T23:36:32.417Z,97957.78
2023-01-04T23:39:02.163Z,97931.84
2023-01-04T23:41:46.184Z,97975.13
2023-01-04T23:46:53.398Z,97906.78
2023-01-04T23:49:21.581Z,97959.53
2023-01-04T23:51:49.965Z,97919.72
2023-01-04T23:54:18.251Z,97946.50
2023-01-04T23:56:46.454Z,97946.50
2023-01-04T23:59:14.777Z,97947.41
